Time;durP1;ratioP1;P1;durP2;ratioP2;P2;SDS_P1;SDS_P2;PMS_P1;PMS_P2;Temp;Humidity;BMP_temperature;BMP_pressure;BME280_temperature;BME280_humidity;BME280_pressure;Samples;Min_cycle;Max_cycle;Signal;HPM_P1;HPM_P2
2021/12/29 00:01:29;;;;;;;;;;;11.80;96.60;;;;;;4952267;28;19942;-93
2021/12/29 00:03:55;;;;;;;;;;;11.80;96.60;;;;;;4959417;28;20233;-93
2021/12/29 00:06:22;;;;;;;;;;;11.80;96.50;;;;;;4967807;28;19936;-92
2021/12/29 00:08:49;;;;;;;;;;;11.80;96.50;;;;;;4956771;28;19922;-91
2021/12/29 00:11:16;;;;;;;;;;;11.80;96.40;;;;;;4982126;28;19935;-94
2021/12/29 00:13:43;;;;;;;;;;;11.80;96.40;;;;;;4955761;28;19918;-93
2021/12/29 00:16:10;;;;;;;;;;;11.80;96.40;;;;;;4960282;28;19922;-92
2021/12/29 00:18:37;;;;;;;;;;;11.90;96.40;;;;;;4941808;28;19933;-93
2021/12/29 00:21:05;;;;;;;;;;;11.80;96.40;;;;;;4979725;28;20012;-94
2021/12/29 00:23:32;;;;;;;;;;;11.90;96.40;;;;;;4975233;28;20350;-92
2021/12/29 00:25:59;;;;;;;;;;;11.80;96.40;;;;;;4968838;28;20311;-94
2021/12/29 00:28:26;;;;;;;;;;;11.80;96.40;;;;;;4964912;28;20271;-90
2021/12/29 00:30:53;;;;;;;;;;;11.90;96.40;;;;;;4946905;28;20425;-94
2021/12/29 00:33:20;;;;;;;;;;;11.90;96.40;;;;;;4941799;28;20314;-93
2021/12/29 00:35:47;;;;;;;;;;;11.90;96.20;;;;;;4969264;28;20138;-92
2021/12/29 00:38:14;;;;;;;;;;;11.80;96.30;;;;;;4978984;28;19922;-90
2021/12/29 00:40:41;;;;;;;;;;;11.80;96.20;;;;;;4966527;28;19917;-91
2021/12/29 00:43:08;;;;;;;;;;;11.80;96.20;;;;;;4946908;28;19940;-93
2021/12/29 00:45:36;;;;;;;;;;;11.80;96.10;;;;;;4976879;28;19929;-94
2021/12/29 00:48:04;;;;;;;;;;;11.80;96.50;;;;;;4946099;28;19922;-93
2021/12/29 00:50:33;;;;;;;;;;;11.90;96.20;;;;;;4953635;28;19914;-89
2021/12/29 00:53:00;;;;;;;;;;;11.80;96.20;;;;;;4948782;28;20306;-93
2021/12/29 00:55:27;;;;;;;;;;;11.90;96.20;;;;;;4944535;28;19920;-93
2021/12/29 00:57:54;;;;;;;;;;;11.90;96.20;;;;;;4943504;28;20448;-93
2021/12/29 01:00:22;;;;;;;;;;;11.90;96.20;;;;;;4961338;28;19913;-93
2021/12/29 01:02:49;;;;;;;;;;;11.80;96.20;;;;;;4951352;28;20114;-94
2021/12/29 01:05:16;;;;;;;;;;;11.90;96.20;;;;;;4927978;28;19944;-93
2021/12/29 01:07:44;;;;;;;;;;;11.90;96.10;;;;;;4943662;28;19914;-94
2021/12/29 01:10:13;;;;;;;;;;;11.80;96.10;;;;;;4935270;28;20274;-94
2021/12/29 01:12:50;;;;;;;;;;;11.80;96.10;;;;;;4942438;28;19917;-94
2021/12/29 01:15:24;;;;;;;;;;;11.80;96.00;;;;;;4946143;28;19918;-95
2021/12/29 01:17:52;;;;;;;;;;;11.90;96.20;;;;;;4936607;28;19926;-94
2021/12/29 01:20:20;;;;;;;;;;;11.80;96.20;;;;;;4939737;28;20342;-93
2021/12/29 01:22:47;;;;;;;;;;;11.80;96.10;;;;;;4955361;28;20213;-92
2021/12/29 01:25:14;;;;;;;;;;;11.80;96.00;;;;;;4953281;28;19921;-93
2021/12/29 01:27:41;;;;;;;;;;;11.80;96.10;;;;;;4940617;28;20363;-91
2021/12/29 01:30:10;;;;;;;;;;;11.80;96.10;;;;;;4962027;28;20437;-94
2021/12/29 01:32:38;;;;;;;;;;;11.80;96.10;;;;;;4953796;28;20002;-93
2021/12/29 01:35:06;;;;;;;;;;;11.80;96.10;;;;;;4976366;28;19925;-94
2021/12/29 01:37:33;;;;;;;;;;;11.80;96.10;;;;;;4976905;28;19924;-94
2021/12/29 01:40:00;;;;;;;;;;;11.80;96.10;;;;;;5001726;28;19921;-94
2021/12/29 01:42:27;;;;;;;;;;;11.80;96.10;;;;;;4971194;28;19950;-93
2021/12/29 01:44:53;;;;;;;;;;;11.80;96.10;;;;;;4988448;28;19913;-92
2021/12/29 01:47:25;;;;;;;;;;;11.80;96.20;;;;;;4993468;28;20306;-95
2021/12/29 01:49:51;;;;;;;;;;;11.80;96.20;;;;;;4958376;28;19944;-93
2021/12/29 01:52:23;;;;;;;;;;;11.80;96.10;;;;;;4985354;28;19921;-92
2021/12/29 01:54:50;;;;;;;;;;;11.80;96.10;;;;;;5003058;28;19913;-94
2021/12/29 01:57:18;;;;;;;;;;;11.80;96.10;;;;;;4988251;28;19940;-94
2021/12/29 01:59:45;;;;;;;;;;;11.80;96.10;;;;;;4975136;28;19926;-94
2021/12/29 02:02:14;;;;;;;;;;;11.80;96.10;;;;;;5011145;28;19909;-94
2021/12/29 02:05:00;;;;;;;;;;;11.80;96.10;;;;;;5000462;28;19917;-92
2021/12/29 02:07:29;;;;;;;;;;;11.80;96.20;;;;;;4967991;28;19925;-93
2021/12/29 02:09:59;;;;;;;;;;;11.80;96.20;;;;;;4955576;28;20030;-92
2021/12/29 02:12:26;;;;;;;;;;;11.80;96.20;;;;;;4973938;28;19914;-91
2021/12/29 02:14:53;;;;;;;;;;;11.80;96.10;;;;;;4981929;28;19914;-92
2021/12/29 02:17:20;;;;;;;;;;;11.80;96.10;;;;;;4992064;28;19927;-90
2021/12/29 02:19:47;;;;;;;;;;;11.80;96.00;;;;;;4984624;28;20504;-92
2021/12/29 02:27:45;;;;;;;;;;;11.80;96.00;;;;;;4966634;28;19920;-92
2021/12/29 02:30:13;;;;;;;;;;;11.70;96.00;;;;;;4990102;28;20385;-92
2021/12/29 02:32:41;;;;;;;;;;;11.70;96.00;;;;;;4971103;28;19932;-92
2021/12/29 02:35:09;;;;;;;;;;;11.70;96.00;;;;;;4969597;28;20448;-93
2021/12/29 02:37:37;;;;;;;;;;;11.70;96.00;;;;;;4992998;28;19924;-92
2021/12/29 02:40:05;;;;;;;;;;;11.70;96.00;;;;;;4984171;28;19914;-92
2021/12/29 02:42:39;;;;;;;;;;;11.70;96.00;;;;;;4979649;28;20282;-93
2021/12/29 02:45:07;;;;;;;;;;;11.80;96.00;;;;;;4973598;28;19932;-91
2021/12/29 02:47:34;;;;;;;;;;;11.70;95.90;;;;;;5003106;28;19917;-92
2021/12/29 02:50:01;;;;;;;;;;;11.80;96.00;;;;;;4979925;28;19947;-93
2021/12/29 02:52:29;;;;;;;;;;;11.70;95.90;;;;;;4975874;28;20293;-93
2021/12/29 02:54:56;;;;;;;;;;;11.70;96.00;;;;;;4965244;28;20104;-93
2021/12/29 02:57:23;;;;;;;;;;;11.70;95.90;;;;;;4974471;28;20389;-89
2021/12/29 02:59:50;;;;;;;;;;;11.80;96.00;;;;;;4977895;28;19936;-91
2021/12/29 03:02:18;;;;;;;;;;;11.80;96.00;;;;;;4990610;28;19944;-91
2021/12/29 03:04:45;;;;;;;;;;;11.80;95.90;;;;;;4970818;28;19930;-91
2021/12/29 03:07:12;;;;;;;;;;;11.70;95.90;;;;;;4971000;28;19924;-92
2021/12/29 03:09:39;;;;;;;;;;;11.80;96.00;;;;;;4976520;28;19925;-90
2021/12/29 03:12:06;;;;;;;;;;;11.80;96.00;;;;;;5006128;28;20454;-92
2021/12/29 03:14:33;;;;;;;;;;;11.70;95.90;;;;;;4978167;28;20386;-90
2021/12/29 03:17:00;;;;;;;;;;;11.70;95.90;;;;;;4975012;28;20483;-93
2021/12/29 03:19:28;;;;;;;;;;;11.80;96.00;;;;;;4992883;28;19923;-91
2021/12/29 03:21:55;;;;;;;;;;;11.80;95.90;;;;;;4987364;28;19922;-90
2021/12/29 03:24:21;;;;;;;;;;;11.80;96.00;;;;;;4986907;28;20303;-90
2021/12/29 03:26:48;;;;;;;;;;;11.80;96.00;;;;;;4987204;28;19922;-91
2021/12/29 03:29:15;;;;;;;;;;;11.80;96.00;;;;;;4983592;28;19920;-90
2021/12/29 03:31:43;;;;;;;;;;;11.80;95.90;;;;;;4983427;28;19942;-92
2021/12/29 03:34:10;;;;;;;;;;;11.80;95.90;;;;;;4987713;28;20329;-92
2021/12/29 03:36:37;;;;;;;;;;;11.80;96.00;;;;;;4999627;28;19913;-92
2021/12/29 03:39:04;;;;;;;;;;;11.80;95.90;;;;;;4965907;28;20360;-92
2021/12/29 03:41:31;;;;;;;;;;;11.80;96.00;;;;;;4980079;28;19917;-91
2021/12/29 03:43:58;;;;;;;;;;;11.80;96.00;;;;;;4994696;28;20120;-93
2021/12/29 03:46:26;;;;;;;;;;;11.80;96.00;;;;;;4963302;28;19926;-92
2021/12/29 03:48:53;;;;;;;;;;;11.80;96.00;;;;;;4983818;28;20319;-92
2021/12/29 03:51:20;;;;;;;;;;;11.80;96.10;;;;;;4975124;28;19924;-91
2021/12/29 03:53:47;;;;;;;;;;;11.80;96.00;;;;;;4981009;28;20115;-90
2021/12/29 03:56:14;;;;;;;;;;;11.80;96.10;;;;;;4982730;28;19924;-90
2021/12/29 03:58:44;;;;;;;;;;;11.80;96.10;;;;;;4974005;28;19925;-91
2021/12/29 04:01:11;;;;;;;;;;;11.80;96.00;;;;;;4998128;28;19920;-91
2021/12/29 04:03:42;;;;;;;;;;;11.80;96.00;;;;;;4990440;28;19921;-92
2021/12/29 04:06:09;;;;;;;;;;;11.80;96.00;;;;;;5001905;28;19921;-92
2021/12/29 04:08:36;;;;;;;;;;;11.80;96.00;;;;;;4979566;28;19913;-90
2021/12/29 04:11:02;;;;;;;;;;;11.80;96.00;;;;;;4985156;28;19922;-90
2021/12/29 04:13:29;;;;;;;;;;;11.80;96.00;;;;;;4991218;28;20187;-92
2021/12/29 04:15:57;;;;;;;;;;;11.80;96.00;;;;;;4976158;28;20257;-91
2021/12/29 04:18:27;;;;;;;;;;;11.80;96.00;;;;;;4995800;28;20405;-91
2021/12/29 04:20:57;;;;;;;;;;;11.80;96.00;;;;;;4987383;28;19944;-93
2021/12/29 04:23:27;;;;;;;;;;;11.80;96.00;;;;;;4984333;28;20337;-92
2021/12/29 04:25:55;;;;;;;;;;;11.80;96.00;;;;;;4983977;28;20306;-92
2021/12/29 04:28:23;;;;;;;;;;;11.80;96.30;;;;;;4981383;28;20378;-92
2021/12/29 04:30:51;;;;;;;;;;;11.80;95.90;;;;;;4995412;28;19921;-92
2021/12/29 04:33:18;;;;;;;;;;;11.70;95.90;;;;;;4964049;28;19932;-92
2021/12/29 04:35:45;;;;;;;;;;;11.80;95.90;;;;;;4983742;28;20125;-92
2021/12/29 04:38:12;;;;;;;;;;;11.80;95.80;;;;;;4987826;28;19941;-92
2021/12/29 04:40:40;;;;;;;;;;;11.80;95.90;;;;;;4984462;28;19921;-91
2021/12/29 04:43:06;;;;;;;;;;;11.80;95.90;;;;;;4986237;28;19913;-92
2021/12/29 04:45:33;;;;;;;;;;;11.80;95.90;;;;;;4981448;28;19913;-91
2021/12/29 04:48:01;;;;;;;;;;;11.80;96.00;;;;;;4979024;28;22565;-92
2021/12/29 04:50:37;;;;;;;;;;;11.80;96.00;;;;;;4993910;28;19940;-92
2021/12/29 04:53:05;;;;;;;;;;;11.80;95.90;;;;;;4992859;28;19914;-91
2021/12/29 04:55:32;;;;;;;;;;;11.80;96.00;;;;;;4969819;28;19917;-92
2021/12/29 04:57:59;;;;;;;;;;;11.80;96.00;;;;;;4978036;28;19921;-92
2021/12/29 05:00:28;;;;;;;;;;;11.80;96.00;;;;;;4993790;28;19924;-92
2021/12/29 05:02:56;;;;;;;;;;;11.80;95.90;;;;;;4986260;28;20023;-91
2021/12/29 05:10:46;;;;;;;;;;;11.70;95.90;;;;;;4987569;28;20554;-92
2021/12/29 05:13:15;;;;;;;;;;;11.70;95.80;;;;;;4989072;28;19914;-91
2021/12/29 05:15:42;;;;;;;;;;;11.70;95.80;;;;;;4971337;28;19921;-91
2021/12/29 05:18:09;;;;;;;;;;;11.70;95.80;;;;;;4980941;28;19924;-91
2021/12/29 05:20:37;;;;;;;;;;;11.70;95.80;;;;;;4991653;28;20346;-92
2021/12/29 05:23:03;;;;;;;;;;;11.70;95.60;;;;;;4990979;28;20235;-92
2021/12/29 05:25:30;;;;;;;;;;;11.70;95.60;;;;;;4991923;28;19920;-92
2021/12/29 05:27:57;;;;;;;;;;;11.70;95.50;;;;;;5005496;28;20382;-92
2021/12/29 05:30:24;;;;;;;;;;;11.70;95.50;;;;;;4980913;28;19926;-92
2021/12/29 05:32:52;;;;;;;;;;;11.70;95.60;;;;;;4967073;28;20054;-92
2021/12/29 05:35:18;;;;;;;;;;;11.70;95.60;;;;;;5005378;28;19935;-92
2021/12/29 05:37:48;;;;;;;;;;;11.70;95.60;;;;;;5005788;28;20821;-92
2021/12/29 05:40:15;;;;;;;;;;;11.70;95.60;;;;;;4987853;28;19917;-92
2021/12/29 05:42:42;;;;;;;;;;;11.70;95.70;;;;;;4978852;28;19914;-91
2021/12/29 05:45:10;;;;;;;;;;;11.70;95.60;;;;;;4977000;28;19914;-91
2021/12/29 05:47:37;;;;;;;;;;;11.70;95.70;;;;;;4979368;28;19928;-91
2021/12/29 05:50:05;;;;;;;;;;;11.70;95.70;;;;;;4982531;28;20177;-91
2021/12/29 05:52:32;;;;;;;;;;;11.70;95.70;;;;;;4981066;28;19913;-91
2021/12/29 05:54:58;;;;;;;;;;;11.70;95.70;;;;;;4985607;28;20080;-91
2021/12/29 05:57:25;;;;;;;;;;;11.70;95.60;;;;;;4971777;28;19920;-91
2021/12/29 05:59:52;;;;;;;;;;;11.70;95.50;;;;;;4970519;28;19921;-91
2021/12/29 06:02:19;;;;;;;;;;;11.70;95.50;;;;;;4966296;28;20272;-92
2021/12/29 06:04:47;;;;;;;;;;;11.70;95.50;;;;;;4953101;28;20615;-92
2021/12/29 06:07:14;;;;;;;;;;;11.70;95.50;;;;;;4990382;28;20273;-91
2021/12/29 06:09:41;;;;;;;;;;;11.70;95.40;;;;;;4955493;28;19927;-91
2021/12/29 06:12:08;;;;;;;;;;;11.70;95.40;;;;;;4988215;28;19936;-91
2021/12/29 06:14:35;;;;;;;;;;;11.70;95.40;;;;;;4967609;28;20374;-92
2021/12/29 06:17:02;;;;;;;;;;;11.60;95.40;;;;;;4989123;28;19917;-92
2021/12/29 06:19:31;;;;;;;;;;;11.70;95.30;;;;;;4977450;28;20281;-91
2021/12/29 06:21:58;;;;;;;;;;;11.70;95.40;;;;;;4980328;28;19917;-91
2021/12/29 06:24:26;;;;;;;;;;;11.70;95.50;;;;;;4964627;28;20055;-92
2021/12/29 06:26:55;;;;;;;;;;;11.70;95.60;;;;;;4969876;28;19940;-91
2021/12/29 06:29:22;;;;;;;;;;;11.60;95.60;;;;;;4999714;28;19918;-91
2021/12/29 06:31:48;;;;;;;;;;;11.60;95.70;;;;;;4968373;28;20452;-91
2021/12/29 06:34:15;;;;;;;;;;;11.60;95.60;;;;;;4970352;28;19928;-91
2021/12/29 06:36:42;;;;;;;;;;;11.60;95.60;;;;;;4977767;28;20488;-91
2021/12/29 06:39:09;;;;;;;;;;;11.60;95.70;;;;;;4976362;28;19918;-91
2021/12/29 06:41:37;;;;;;;;;;;11.60;95.70;;;;;;4985947;28;19920;-91
2021/12/29 06:44:05;;;;;;;;;;;11.50;95.70;;;;;;4990113;28;19943;-91
2021/12/29 06:46:32;;;;;;;;;;;11.50;95.70;;;;;;4976399;28;20284;-91
2021/12/29 06:48:59;;;;;;;;;;;11.50;95.70;;;;;;4977418;28;19913;-91
2021/12/29 06:51:25;;;;;;;;;;;11.50;95.70;;;;;;4969404;28;19917;-91
2021/12/29 06:53:52;;;;;;;;;;;11.50;95.70;;;;;;4964946;28;20121;-91
2021/12/29 06:56:20;;;;;;;;;;;11.50;95.80;;;;;;4970324;28;19921;-91
2021/12/29 06:58:46;;;;;;;;;;;11.50;95.70;;;;;;4970828;28;19913;-91
2021/12/29 07:01:16;;;;;;;;;;;11.50;95.70;;;;;;4993891;28;19939;-91
2021/12/29 07:03:43;;;;;;;;;;;11.40;95.70;;;;;;4983934;28;19922;-91
2021/12/29 07:06:10;;;;;;;;;;;11.40;95.80;;;;;;4985955;28;19943;-91
2021/12/29 07:08:37;;;;;;;;;;;11.40;95.80;;;;;;5005178;28;19920;-91
2021/12/29 07:11:04;;;;;;;;;;;11.40;95.80;;;;;;4985583;28;21145;-91
2021/12/29 07:13:31;;;;;;;;;;;11.40;95.80;;;;;;4967305;28;20293;-91
2021/12/29 07:15:58;;;;;;;;;;;11.40;95.80;;;;;;4970846;28;19926;-91
2021/12/29 07:18:25;;;;;;;;;;;11.40;95.90;;;;;;4980052;28;20481;-91
2021/12/29 07:20:52;;;;;;;;;;;11.40;95.90;;;;;;4968260;28;20414;-91
2021/12/29 07:23:19;;;;;;;;;;;11.30;95.90;;;;;;4978859;28;19914;-91
2021/12/29 07:25:46;;;;;;;;;;;11.30;95.90;;;;;;4970338;28;20205;-91
2021/12/29 07:28:13;;;;;;;;;;;11.30;95.90;;;;;;4971402;28;19914;-91
2021/12/29 07:30:40;;;;;;;;;;;11.30;95.90;;;;;;4969982;28;19925;-91
2021/12/29 07:33:08;;;;;;;;;;;11.30;95.90;;;;;;4963546;28;20290;-91
2021/12/29 07:35:35;;;;;;;;;;;11.30;95.90;;;;;;4943024;28;19922;-91
2021/12/29 07:38:03;;;;;;;;;;;11.30;96.00;;;;;;4928144;28;19921;-91
2021/12/29 07:40:30;;;;;;;;;;;11.30;96.00;;;;;;4933247;28;19928;-91
2021/12/29 07:42:57;;;;;;;;;;;11.30;96.00;;;;;;4940580;28;20112;-91
2021/12/29 07:45:25;;;;;;;;;;;11.30;96.00;;;;;;4944155;28;19922;-91
2021/12/29 07:47:55;;;;;;;;;;;11.30;96.10;;;;;;4922955;28;20027;-91
2021/12/29 07:50:24;;;;;;;;;;;11.20;96.00;;;;;;4947819;28;19910;-91
2021/12/29 07:52:50;;;;;;;;;;;11.30;96.00;;;;;;4922391;28;20526;-91
2021/12/29 07:55:18;;;;;;;;;;;11.30;96.10;;;;;;4941240;28;19918;-91
2021/12/29 07:57:46;;;;;;;;;;;11.30;96.10;;;;;;4924472;28;19914;-91
2021/12/29 08:00:14;;;;;;;;;;;11.30;96.10;;;;;;4936625;28;19948;-91
2021/12/29 08:02:43;;;;;;;;;;;11.20;96.20;;;;;;4958163;28;19914;-91
2021/12/29 08:05:11;;;;;;;;;;;11.20;96.10;;;;;;4948770;28;20401;-91
2021/12/29 08:07:38;;;;;;;;;;;11.20;96.10;;;;;;4937242;28;19920;-91
2021/12/29 08:10:06;;;;;;;;;;;11.20;96.10;;;;;;4946508;28;19920;-91
2021/12/29 08:12:34;;;;;;;;;;;11.20;96.10;;;;;;4923226;28;19918;-91
2021/12/29 08:15:03;;;;;;;;;;;11.20;96.20;;;;;;4951842;28;20249;-91
2021/12/29 08:17:32;;;;;;;;;;;11.20;96.20;;;;;;4943669;28;19914;-91
2021/12/29 08:20:00;;;;;;;;;;;11.10;96.10;;;;;;4925561;28;19991;-91
2021/12/29 08:22:27;;;;;;;;;;;11.20;96.20;;;;;;4941258;28;19926;-91
2021/12/29 08:24:54;;;;;;;;;;;11.10;96.20;;;;;;4936921;28;19920;-91
2021/12/29 08:27:24;;;;;;;;;;;11.10;96.50;;;;;;4951663;28;19941;-91
2021/12/29 08:29:51;;;;;;;;;;;11.10;96.10;;;;;;4920721;28;20279;-91
2021/12/29 08:32:18;;;;;;;;;;;11.10;96.20;;;;;;4958567;28;19920;-91
2021/12/29 08:34:45;;;;;;;;;;;11.10;96.20;;;;;;4958849;28;20295;-91
2021/12/29 08:37:13;;;;;;;;;;;11.10;96.30;;;;;;4991460;28;20393;-91
2021/12/29 08:39:40;;;;;;;;;;;11.10;96.30;;;;;;4960847;28;19932;-92
2021/12/29 08:42:09;;;;;;;;;;;11.10;96.40;;;;;;4990785;28;20305;-90
2021/12/29 08:44:39;;;;;;;;;;;11.10;96.40;;;;;;4955176;28;20586;-92
2021/12/29 08:47:08;;;;;;;;;;;11.10;96.40;;;;;;4969141;28;19925;-91
2021/12/29 08:49:37;;;;;;;;;;;11.10;96.40;;;;;;4994491;28;19964;-92
2021/12/29 08:52:04;;;;;;;;;;;11.10;96.40;;;;;;4978659;28;19921;-91
2021/12/29 08:54:32;;;;;;;;;;;11.10;96.40;;;;;;4989181;28;19920;-91
2021/12/29 08:57:02;;;;;;;;;;;11.10;96.50;;;;;;4987790;28;19924;-91
2021/12/29 08:59:29;;;;;;;;;;;11.10;96.50;;;;;;4977888;28;19928;-91
2021/12/29 09:01:57;;;;;;;;;;;11.10;96.50;;;;;;4976869;28;19947;-91
2021/12/29 09:04:24;;;;;;;;;;;11.10;96.50;;;;;;4979666;28;19921;-91
2021/12/29 09:06:52;;;;;;;;;;;11.10;96.50;;;;;;4973725;28;20321;-91
2021/12/29 09:09:20;;;;;;;;;;;11.20;96.60;;;;;;4991689;28;19952;-91
2021/12/29 09:11:50;;;;;;;;;;;11.20;96.70;;;;;;4976561;28;19917;-91
2021/12/29 09:14:18;;;;;;;;;;;11.30;96.80;;;;;;4977354;28;19936;-91
2021/12/29 09:16:45;;;;;;;;;;;11.20;96.80;;;;;;4979685;28;20271;-91
2021/12/29 09:19:13;;;;;;;;;;;11.20;96.80;;;;;;4987534;28;20198;-91
2021/12/29 09:21:44;;;;;;;;;;;11.30;96.90;;;;;;4970998;28;19928;-91
2021/12/29 09:24:12;;;;;;;;;;;11.30;96.90;;;;;;4963311;28;19928;-91
2021/12/29 09:26:39;;;;;;;;;;;11.30;96.90;;;;;;4965892;28;19940;-90
2021/12/29 09:29:06;;;;;;;;;;;11.40;97.00;;;;;;4966063;28;19918;-90
2021/12/29 09:31:33;;;;;;;;;;;11.40;97.00;;;;;;4978286;28;19936;-90
2021/12/29 09:34:00;;;;;;;;;;;11.40;97.00;;;;;;4962348;28;20052;-91
2021/12/29 09:36:27;;;;;;;;;;;11.40;97.10;;;;;;4966362;28;19913;-91
2021/12/29 09:38:54;;;;;;;;;;;11.40;97.00;;;;;;4989996;28;20140;-91
2021/12/29 09:41:22;;;;;;;;;;;11.50;97.10;;;;;;4971152;28;19927;-91
2021/12/29 09:43:49;;;;;;;;;;;11.50;97.10;;;;;;4972874;28;19940;-91
2021/12/29 09:46:17;;;;;;;;;;;11.50;97.00;;;;;;4961401;28;19932;-91
2021/12/29 09:48:45;;;;;;;;;;;11.50;97.00;;;;;;4975338;28;20500;-90
2021/12/29 09:51:12;;;;;;;;;;;11.50;97.00;;;;;;4980300;28;19921;-91
2021/12/29 09:53:40;;;;;;;;;;;11.50;97.00;;;;;;4987491;28;19921;-90
2021/12/29 09:56:10;;;;;;;;;;;11.60;97.00;;;;;;4974587;28;19917;-91
2021/12/29 09:58:38;;;;;;;;;;;11.60;97.10;;;;;;4969153;28;19914;-91
2021/12/29 10:01:07;;;;;;;;;;;11.60;97.10;;;;;;4980014;28;19925;-91
2021/12/29 10:03:46;;;;;;;;;;;11.60;97.10;;;;;;4996023;28;19921;-92
2021/12/29 10:06:14;;;;;;;;;;;11.70;97.10;;;;;;4981007;28;19922;-91
2021/12/29 10:08:43;;;;;;;;;;;11.70;97.20;;;;;;4972273;28;20382;-91
2021/12/29 10:11:36;;;;;;;;;;;11.70;97.20;;;;;;4991962;28;19917;-90
2021/12/29 10:14:15;;;;;;;;;;;11.70;97.10;;;;;;4974668;28;20431;-91
2021/12/29 10:16:45;;;;;;;;;;;11.70;97.10;;;;;;4982264;28;20287;-91
2021/12/29 10:19:13;;;;;;;;;;;11.70;97.10;;;;;;4973430;28;19917;-91
2021/12/29 10:21:41;;;;;;;;;;;11.70;97.00;;;;;;4972311;28;19917;-90
2021/12/29 10:24:08;;;;;;;;;;;11.70;97.00;;;;;;4978369;28;19920;-90
2021/12/29 10:26:37;;;;;;;;;;;11.70;96.90;;;;;;4983161;28;19929;-90
2021/12/29 10:29:07;;;;;;;;;;;11.70;96.80;;;;;;4964179;28;19914;-90
2021/12/29 10:31:45;;;;;;;;;;;11.70;96.90;;;;;;4977723;28;20286;-90
2021/12/29 10:34:13;;;;;;;;;;;11.70;96.90;;;;;;4988277;28;20350;-90
2021/12/29 10:36:51;;;;;;;;;;;11.70;97.00;;;;;;4993801;28;19929;-90
2021/12/29 10:39:29;;;;;;;;;;;11.80;97.00;;;;;;4964507;28;20365;-90
2021/12/29 10:41:58;;;;;;;;;;;11.80;97.00;;;;;;4988516;28;19947;-90
2021/12/29 10:44:30;;;;;;;;;;;11.80;97.30;;;;;;4976721;28;19928;-91
2021/12/29 10:46:58;;;;;;;;;;;11.80;97.00;;;;;;4976751;28;19913;-90
2021/12/29 10:49:27;;;;;;;;;;;11.80;96.90;;;;;;4984219;28;19913;-90
2021/12/29 10:51:55;;;;;;;;;;;11.80;96.90;;;;;;4992766;28;19918;-90
2021/12/29 10:54:24;;;;;;;;;;;11.90;97.10;;;;;;4973006;28;19941;-90
2021/12/29 10:56:59;;;;;;;;;;;11.90;97.10;;;;;;4974440;28;19914;-90
2021/12/29 10:59:30;;;;;;;;;;;11.90;97.10;;;;;;4984099;28;19918;-90
2021/12/29 11:01:57;;;;;;;;;;;12.00;97.20;;;;;;4970366;28;20020;-90
2021/12/29 11:04:26;;;;;;;;;;;12.00;97.10;;;;;;4980731;28;19947;-91
2021/12/29 11:06:56;;;;;;;;;;;12.00;97.40;;;;;;4970906;28;19952;-91
2021/12/29 11:09:34;;;;;;;;;;;12.00;97.40;;;;;;4969997;28;19918;-89
2021/12/29 11:12:08;;;;;;;;;;;12.10;97.30;;;;;;4971271;28;19921;-90
2021/12/29 11:14:37;;;;;;;;;;;12.10;97.20;;;;;;4978802;28;19918;-90
2021/12/29 11:17:04;;;;;;;;;;;12.10;97.20;;;;;;4957355;28;20692;-90
2021/12/29 11:19:30;;;;;;;;;;;12.20;97.30;;;;;;4992911;28;19914;-89
2021/12/29 11:22:08;;;;;;;;;;;12.20;97.10;;;;;;4979286;28;20212;-89
2021/12/29 11:24:35;;;;;;;;;;;12.20;97.00;;;;;;4987833;28;19918;-90
2021/12/29 11:27:28;;;;;;;;;;;12.30;96.90;;;;;;4973270;28;20510;-91
2021/12/29 11:29:56;;;;;;;;;;;12.30;97.00;;;;;;4983202;28;20321;-90
2021/12/29 11:32:31;;;;;;;;;;;12.30;97.00;;;;;;4978127;28;20115;-90
2021/12/29 11:34:59;;;;;;;;;;;12.30;97.10;;;;;;4984455;28;20104;-90
2021/12/29 11:37:26;;;;;;;;;;;12.30;97.30;;;;;;4993459;28;19918;-91
2021/12/29 11:39:54;;;;;;;;;;;12.30;97.40;;;;;;4973789;28;20327;-90
2021/12/29 11:42:22;;;;;;;;;;;12.40;97.50;;;;;;4972633;28;19918;-90
2021/12/29 11:44:49;;;;;;;;;;;12.40;97.50;;;;;;4964947;28;19944;-89
2021/12/29 11:47:16;;;;;;;;;;;12.40;97.50;;;;;;4987927;28;19917;-90
2021/12/29 11:49:43;;;;;;;;;;;12.50;97.50;;;;;;4965415;28;20592;-90
2021/12/29 11:52:10;;;;;;;;;;;12.50;97.50;;;;;;4968260;28;19920;-90
2021/12/29 11:54:42;;;;;;;;;;;12.50;97.60;;;;;;4975047;28;19936;-89
2021/12/29 11:57:10;;;;;;;;;;;12.50;97.50;;;;;;4978419;28;19918;-88
2021/12/29 11:59:37;;;;;;;;;;;12.50;97.50;;;;;;4975171;28;19914;-89
2021/12/29 12:02:04;;;;;;;;;;;12.50;97.50;;;;;;4974778;28;20403;-90
2021/12/29 12:04:31;;;;;;;;;;;12.50;97.40;;;;;;4980157;28;19920;-90
2021/12/29 12:07:02;;;;;;;;;;;12.60;97.40;;;;;;4996887;28;19927;-90
2021/12/29 12:09:29;;;;;;;;;;;12.60;97.50;;;;;;4982406;28;19913;-90
2021/12/29 12:11:59;;;;;;;;;;;12.60;97.50;;;;;;4997584;28;20156;-90
2021/12/29 12:14:26;;;;;;;;;;;12.60;97.50;;;;;;4994293;28;19920;-89
2021/12/29 12:16:58;;;;;;;;;;;12.60;97.50;;;;;;4969463;28;20166;-90
2021/12/29 12:19:28;;;;;;;;;;;12.60;97.50;;;;;;4995017;28;19918;-90
2021/12/29 12:22:02;;;;;;;;;;;12.60;97.40;;;;;;4993579;28;20457;-89
2021/12/29 12:24:29;;;;;;;;;;;12.60;97.50;;;;;;4960015;28;19914;-89
2021/12/29 12:26:58;;;;;;;;;;;12.60;97.40;;;;;;4980867;28;19960;-90
2021/12/29 12:29:27;;;;;;;;;;;12.70;97.50;;;;;;4994202;28;19914;-89
2021/12/29 12:32:07;;;;;;;;;;;12.70;97.50;;;;;;4996082;28;19918;-92
2021/12/29 12:34:47;;;;;;;;;;;12.70;97.50;;;;;;4990265;28;19932;-90
2021/12/29 12:37:18;;;;;;;;;;;12.70;97.60;;;;;;5007052;28;19924;-89
2021/12/29 12:39:55;;;;;;;;;;;12.70;97.50;;;;;;4980384;28;20178;-90
2021/12/29 12:42:23;;;;;;;;;;;12.70;97.60;;;;;;4976909;28;20366;-90
2021/12/29 12:44:51;;;;;;;;;;;12.80;97.50;;;;;;4975103;28;20416;-89
2021/12/29 12:47:18;;;;;;;;;;;12.80;97.50;;;;;;4971482;28;19921;-89
2021/12/29 12:49:52;;;;;;;;;;;12.70;97.40;;;;;;4977083;28;20244;-89
2021/12/29 12:52:23;;;;;;;;;;;12.80;97.40;;;;;;4965645;28;19910;-88
2021/12/29 12:54:53;;;;;;;;;;;12.80;97.30;;;;;;4984461;28;20139;-90
2021/12/29 12:57:37;;;;;;;;;;;12.80;97.20;;;;;;4970352;28;19909;-89
2021/12/29 13:00:12;;;;;;;;;;;12.80;97.20;;;;;;4997178;28;19914;-89
2021/12/29 13:02:41;;;;;;;;;;;12.80;97.20;;;;;;4990498;28;20235;-90
2021/12/29 13:05:14;;;;;;;;;;;12.80;97.20;;;;;;4984149;28;19935;-90
2021/12/29 13:07:43;;;;;;;;;;;12.80;97.20;;;;;;4971447;28;20485;-91
2021/12/29 13:10:11;;;;;;;;;;;12.80;97.20;;;;;;4982097;28;19917;-91
2021/12/29 13:12:40;;;;;;;;;;;12.80;97.20;;;;;;4977169;28;20511;-91
2021/12/29 13:15:09;;;;;;;;;;;12.80;97.20;;;;;;4987066;28;19917;-91
2021/12/29 13:17:36;;;;;;;;;;;12.70;97.10;;;;;;4979358;28;20293;-89
2021/12/29 13:20:04;;;;;;;;;;;12.70;97.00;;;;;;4976316;28;19917;-89
2021/12/29 13:22:33;;;;;;;;;;;12.60;97.10;;;;;;4967898;28;19918;-90
2021/12/29 13:25:06;;;;;;;;;;;12.60;97.00;;;;;;4994462;28;19918;-90
2021/12/29 13:27:33;;;;;;;;;;;12.60;97.10;;;;;;4964255;28;19953;-90
2021/12/29 13:30:02;;;;;;;;;;;12.60;97.10;;;;;;5001152;28;19949;-89
2021/12/29 13:32:29;;;;;;;;;;;12.50;97.10;;;;;;4986880;28;19935;-90
2021/12/29 13:35:00;;;;;;;;;;;12.50;97.10;;;;;;4988454;28;20386;-90
2021/12/29 13:37:27;;;;;;;;;;;12.50;97.20;;;;;;4976590;28;19920;-90
2021/12/29 13:39:54;;;;;;;;;;;12.50;97.20;;;;;;4978628;28;19920;-90
2021/12/29 13:42:22;;;;;;;;;;;12.50;97.30;;;;;;4972134;28;19922;-90
2021/12/29 13:44:50;;;;;;;;;;;12.50;97.30;;;;;;4977228;28;19921;-90
2021/12/29 13:47:21;;;;;;;;;;;12.50;97.30;;;;;;4996615;28;20391;-90
2021/12/29 13:49:48;;;;;;;;;;;12.50;97.30;;;;;;4993908;28;19917;-90
2021/12/29 13:52:15;;;;;;;;;;;12.50;97.30;;;;;;4974449;28;19998;-91
2021/12/29 13:54:44;;;;;;;;;;;12.50;97.30;;;;;;4994998;28;19933;-90
2021/12/29 13:57:11;;;;;;;;;;;12.40;97.30;;;;;;4976128;28;19917;-91
2021/12/29 13:59:38;;;;;;;;;;;12.50;97.40;;;;;;4978316;28;19914;-91
2021/12/29 14:02:06;;;;;;;;;;;12.50;97.50;;;;;;4975912;28;20016;-91
2021/12/29 14:04:35;;;;;;;;;;;12.50;97.50;;;;;;4995407;28;19928;-91
2021/12/29 14:07:04;;;;;;;;;;;12.50;97.50;;;;;;4989992;28;19928;-92
2021/12/29 14:09:32;;;;;;;;;;;12.50;97.50;;;;;;4994032;28;20294;-91
2021/12/29 14:12:15;;;;;;;;;;;12.50;97.50;;;;;;4990834;28;19914;-91
2021/12/29 14:14:43;;;;;;;;;;;12.50;97.50;;;;;;4973029;28;19920;-91
2021/12/29 14:17:14;;;;;;;;;;;12.50;97.50;;;;;;4970700;28;19913;-92
2021/12/29 14:19:45;;;;;;;;;;;12.50;97.50;;;;;;4987388;28;19913;-91
2021/12/29 14:22:24;;;;;;;;;;;12.50;97.50;;;;;;4993399;28;19924;-93
2021/12/29 14:24:51;;;;;;;;;;;12.50;97.50;;;;;;4980155;28;19944;-91
2021/12/29 14:27:27;;;;;;;;;;;12.50;97.50;;;;;;4977624;28;19921;-92
2021/12/29 14:29:55;;;;;;;;;;;12.60;97.60;;;;;;4965858;28;19924;-91
2021/12/29 14:32:23;;;;;;;;;;;12.60;97.60;;;;;;4979196;28;19913;-92
2021/12/29 14:34:52;;;;;;;;;;;12.60;97.70;;;;;;4980552;28;19952;-91